createdAt,value
2022-12-23T00:01:29.341Z,69.03
2022-12-23T00:03:59.500Z,68.87
2022-12-23T00:06:28.033Z,69.42
2022-12-23T00:08:59.016Z,69.90
2022-12-23T00:11:29.633Z,69.96
2022-12-23T00:14:21.219Z,69.41
2022-12-23T00:16:50.627Z,68.80
2022-12-23T00:19:18.980Z,68.60
2022-12-23T00:21:48.543Z,68.72
2022-12-23T00:24:16.555Z,68.01
2022-12-23T00:26:46.040Z,68.08
2022-12-23T00:29:14.125Z,68.48
2022-12-23T00:31:42.265Z,68.81
2022-12-23T00:34:11.886Z,69.16
2022-12-23T00:36:40.890Z,69.27
2022-12-23T00:39:30.193Z,69.27
2022-12-23T00:42:16.876Z,69.36
2022-12-23T00:44:45.164Z,69.64
2022-12-23T00:47:33.210Z,68.83
2022-12-23T00:50:00.256Z,68.72
2022-12-23T00:52:28.367Z,68.43
2022-12-23T00:54:56.741Z,69.29
2022-12-23T00:57:26.203Z,69.94
2022-12-23T00:59:54.363Z,69.56
2022-12-23T01:02:39.540Z,69.68
2022-12-23T01:05:25.805Z,69.65
2022-12-23T01:07:56.143Z,68.42
2022-12-23T01:10:24.302Z,68.37
2022-12-23T01:12:53.640Z,68.35
2022-12-23T01:15:21.670Z,68.42
2022-12-23T01:17:49.713Z,68.00
2022-12-23T01:20:17.929Z,67.90
2022-12-23T01:22:45.961Z,68.51
2022-12-23T01:25:14.277Z,69.56
2022-12-23T01:27:42.354Z,68.91
2022-12-23T01:30:12.465Z,68.91
2022-12-23T01:32:40.528Z,69.33
2022-12-23T01:35:09.155Z,70.23
2022-12-23T01:37:37.733Z,70.57
2022-12-23T01:40:06.828Z,70.08
2022-12-23T01:42:47.513Z,69.92
2022-12-23T01:45:19.671Z,70.27
2022-12-23T01:47:53.050Z,70.46
2022-12-23T01:50:26.638Z,70.29
2022-12-23T01:53:07.368Z,69.37
2022-12-23T01:55:41.732Z,69.94
2022-12-23T01:58:14.690Z,70.19
2022-12-23T02:01:01.594Z,70.22
2022-12-23T02:03:45.706Z,70.92
2022-12-23T02:06:39.281Z,71.59
2022-12-23T02:09:19.774Z,71.15
2022-12-23T02:12:21.555Z,70.39
2022-12-23T02:15:25.782Z,69.52
2022-12-23T02:18:06.544Z,70.34
2022-12-23T02:21:03.001Z,70.38
2022-12-23T02:23:48.895Z,71.19
2022-12-23T02:26:46.692Z,70.90
2022-12-23T02:29:36.984Z,71.50
2022-12-23T02:32:12.270Z,71.61
2022-12-23T02:34:46.848Z,70.62
2022-12-23T02:37:21.719Z,71.87
2022-12-23T02:39:56.246Z,71.92
2022-12-23T02:42:30.296Z,71.75
2022-12-23T02:45:04.509Z,70.60
2022-12-23T02:47:39.038Z,70.52
2022-12-23T02:50:12.717Z,70.61
2022-12-23T02:52:45.200Z,70.38
2022-12-23T02:55:17.394Z,70.63
2022-12-23T02:57:49.414Z,70.09
2022-12-23T03:00:18.996Z,69.59
2022-12-23T03:02:49.316Z,69.73
2022-12-23T03:05:30.784Z,68.72
2022-12-23T03:08:04.091Z,70.26
2022-12-23T03:10:45.173Z,70.27
2022-12-23T03:13:26.340Z,70.28
2022-12-23T03:16:01.928Z,70.16
2022-12-23T03:18:42.210Z,69.77
2022-12-23T03:21:15.800Z,69.77
2022-12-23T03:23:55.547Z,69.54
2022-12-23T03:26:31.270Z,69.42
2022-12-23T03:29:07.091Z,69.58
2022-12-23T03:31:37.006Z,70.90
2022-12-23T03:34:12.286Z,71.49
2022-12-23T03:36:46.016Z,71.20
2022-12-23T03:39:18.505Z,71.64
2022-12-23T03:41:52.686Z,70.26
2022-12-23T03:44:27.301Z,70.15
2022-12-23T03:47:02.863Z,70.42
2022-12-23T03:49:36.967Z,70.82
2022-12-23T03:52:14.522Z,70.85
2022-12-23T03:54:52.844Z,69.69
2022-12-23T03:57:23.123Z,70.12
2022-12-23T03:59:51.971Z,70.00
2022-12-23T04:02:26.338Z,69.19
2022-12-23T04:05:15.196Z,69.75
2022-12-23T04:07:47.508Z,69.48
2022-12-23T04:10:19.086Z,69.28
2022-12-23T04:12:47.315Z,69.52
2022-12-23T04:15:21.138Z,69.08
2022-12-23T04:17:49.886Z,68.75
2022-12-23T04:20:19.785Z,69.32
2022-12-23T04:22:47.867Z,70.21
2022-12-23T04:25:17.511Z,69.77
2022-12-23T04:27:45.554Z,70.06
2022-12-23T04:30:14.875Z,70.12
2022-12-23T04:32:43.794Z,70.68
2022-12-23T04:35:13.292Z,70.63
2022-12-23T04:37:42.800Z,71.12
2022-12-23T04:40:11.429Z,70.36
2022-12-23T04:42:39.679Z,70.91
2022-12-23T04:45:09.161Z,71.15
2022-12-23T04:47:37.635Z,71.13
2022-12-23T04:50:06.427Z,70.33
2022-12-23T04:52:34.429Z,71.26
2022-12-23T04:55:03.839Z,71.16
2022-12-23T04:57:33.111Z,71.83
2022-12-23T05:00:01.368Z,71.25
2022-12-23T05:02:29.595Z,71.98
2022-12-23T05:04:57.616Z,71.90
2022-12-23T05:07:25.851Z,72.88
2022-12-23T05:09:53.983Z,72.32
2022-12-23T05:12:23.462Z,71.95
2022-12-23T05:14:51.580Z,71.10
2022-12-23T05:17:19.608Z,70.00
2022-12-23T05:19:47.556Z,70.45
2022-12-23T05:22:15.691Z,70.42
2022-12-23T05:24:43.690Z,69.68
2022-12-23T05:27:11.881Z,70.58
2022-12-23T05:29:41.324Z,70.48
2022-12-23T05:32:11.964Z,70.01
2022-12-23T05:34:40.173Z,69.68
2022-12-23T05:37:08.306Z,70.77
2022-12-23T05:39:36.270Z,71.38
2022-12-23T05:42:04.504Z,71.90
2022-12-23T05:44:32.635Z,71.70
2022-12-23T05:47:02.421Z,72.79
2022-12-23T05:49:30.465Z,73.00
2022-12-23T05:51:58.691Z,72.98
2022-12-23T05:54:27.093Z,72.67
2022-12-23T05:56:55.245Z,73.04
2022-12-23T05:59:27.642Z,74.48
2022-12-23T06:01:58.955Z,74.85
2022-12-23T06:04:28.761Z,74.31
2022-12-23T06:06:56.805Z,72.84
2022-12-23T06:09:25.136Z,71.55
2022-12-23T06:11:53.377Z,71.24
2022-12-23T06:14:26.844Z,71.42
2022-12-23T06:16:56.804Z,72.58
2022-12-23T06:19:25.124Z,71.17
2022-12-23T06:21:54.529Z,70.27
2022-12-23T06:24:22.564Z,70.09
2022-12-23T06:26:56.508Z,69.01
2022-12-23T06:29:25.511Z,68.54
2022-12-23T06:31:53.840Z,69.04
2022-12-23T06:34:21.974Z,67.98
2022-12-23T06:36:50.247Z,68.00
2022-12-23T06:39:20.439Z,67.28
2022-12-23T06:41:48.393Z,67.67
2022-12-23T06:44:16.364Z,67.44
2022-12-23T06:46:44.481Z,67.77
2022-12-23T06:49:13.721Z,67.82
2022-12-23T06:51:42.130Z,68.42
2022-12-23T06:54:12.070Z,69.45
2022-12-23T06:56:41.626Z,69.87
2022-12-23T06:59:09.814Z,68.52
2022-12-23T07:01:37.934Z,69.58
2022-12-23T07:04:06.657Z,69.41
2022-12-23T07:06:34.751Z,69.64
2022-12-23T07:09:02.774Z,70.35
2022-12-23T07:11:31.055Z,69.93
2022-12-23T07:14:00.597Z,70.82
2022-12-23T07:16:28.794Z,69.91
2022-12-23T07:18:56.973Z,69.04
2022-12-23T07:21:29.590Z,68.45
2022-12-23T07:23:58.212Z,68.79
2022-12-23T07:26:26.181Z,68.54
2022-12-23T07:28:54.277Z,68.97
2022-12-23T07:31:23.952Z,69.36
2022-12-23T07:33:52.249Z,70.22
2022-12-23T07:36:20.502Z,69.76
2022-12-23T07:38:50.579Z,68.50
2022-12-23T07:41:18.800Z,69.37
2022-12-23T07:43:46.896Z,67.97
2022-12-23T07:46:15.124Z,70.65
2022-12-23T07:48:44.527Z,70.61
2022-12-23T07:51:12.876Z,70.10
2022-12-23T07:53:40.935Z,69.58
2022-12-23T07:56:09.613Z,69.89
2022-12-23T07:58:37.699Z,70.47
2022-12-23T08:01:08.650Z,69.71
2022-12-23T08:03:37.780Z,69.16
2022-12-23T08:06:09.351Z,68.90
2022-12-23T08:08:37.373Z,68.79
2022-12-23T08:11:09.227Z,68.73
2022-12-23T08:13:39.695Z,69.99
2022-12-23T08:16:09.104Z,70.71
2022-12-23T08:18:39.155Z,69.65
2022-12-23T08:21:11.705Z,70.81
2022-12-23T08:23:39.832Z,69.85
2022-12-23T08:26:10.623Z,69.63
2022-12-23T08:28:39.588Z,69.60
2022-12-23T08:31:10.538Z,70.07
2022-12-23T08:33:39.717Z,69.28
2022-12-23T08:36:19.081Z,69.13
2022-12-23T08:38:50.600Z,67.96
2022-12-23T08:41:21.126Z,69.50
2022-12-23T08:43:49.149Z,69.25
2022-12-23T08:46:17.246Z,68.39
2022-12-23T08:48:49.094Z,68.00
2022-12-23T08:51:20.954Z,67.67
2022-12-23T08:53:51.575Z,68.43
2022-12-23T08:56:24.960Z,66.30
2022-12-23T08:58:54.965Z,66.49
2022-12-23T09:01:25.402Z,66.19
2022-12-23T09:03:54.605Z,65.41
2022-12-23T09:06:29.572Z,65.59
2022-12-23T09:08:59.006Z,65.88
2022-12-23T09:11:29.072Z,66.70
2022-12-23T09:13:59.531Z,68.66
2022-12-23T09:16:27.770Z,69.23
2022-12-23T09:18:55.968Z,67.82
2022-12-23T09:21:26.122Z,66.16
2022-12-23T09:23:54.246Z,66.30
2022-12-23T09:26:24.272Z,66.01
2022-12-23T09:28:53.029Z,65.25
2022-12-23T09:31:23.370Z,66.71
2022-12-23T09:33:54.076Z,66.15
2022-12-23T09:36:23.306Z,65.65
2022-12-23T09:38:57.489Z,65.30
2022-12-23T09:41:48.832Z,65.91
2022-12-23T09:44:41.817Z,64.76
2022-12-23T09:47:14.190Z,65.17
2022-12-23T09:49:48.606Z,64.02
2022-12-23T09:52:21.887Z,64.23
2022-12-23T09:54:54.677Z,63.50
2022-12-23T09:57:27.925Z,62.63
2022-12-23T10:00:08.252Z,62.65
2022-12-23T10:03:01.503Z,61.91
2022-12-23T10:05:40.750Z,61.12
2022-12-23T10:08:13.572Z,61.43
2022-12-23T10:10:46.457Z,60.76
2022-12-23T10:13:25.396Z,60.39
2022-12-23T10:15:56.187Z,59.39
2022-12-23T10:18:29.017Z,59.45
2022-12-23T10:21:04.397Z,58.39
2022-12-23T10:23:37.973Z,57.82
2022-12-23T10:26:18.891Z,57.31
2022-12-23T10:28:47.066Z,58.22
2022-12-23T10:34:18.770Z,56.92
2022-12-23T10:36:56.329Z,56.92
2022-12-23T10:39:33.473Z,56.67
2022-12-23T10:42:13.864Z,56.44
2022-12-23T10:45:05.654Z,57.21
2022-12-23T10:47:49.080Z,57.69
2022-12-23T10:50:37.144Z,57.63
2022-12-23T10:53:11.757Z,57.30
2022-12-23T10:55:40.781Z,56.79
2022-12-23T10:58:15.751Z,56.50
2022-12-23T11:00:47.350Z,55.97
2022-12-23T11:03:23.278Z,55.86
2022-12-23T11:05:53.771Z,55.84
2022-12-23T11:08:23.162Z,56.24
2022-12-23T11:10:51.695Z,57.57
2022-12-23T11:13:34.189Z,57.34
2022-12-23T11:16:17.551Z,57.30
2022-12-23T11:19:01.540Z,57.75
2022-12-23T11:21:31.225Z,57.74
2022-12-23T11:24:19.184Z,56.98
2022-12-23T11:26:50.585Z,56.70
2022-12-23T11:29:24.861Z,57.90
2022-12-23T11:31:53.352Z,57.50
2022-12-23T11:34:23.885Z,57.82
2022-12-23T11:37:00.280Z,57.58
2022-12-23T11:39:34.944Z,56.70
2022-12-23T11:42:08.173Z,56.76
2022-12-23T11:44:42.485Z,56.38
2022-12-23T11:47:26.342Z,55.93
2022-12-23T11:49:56.335Z,55.63
2022-12-23T11:52:25.761Z,56.35
2022-12-23T11:54:55.766Z,56.34
2022-12-23T11:57:32.143Z,56.65
2022-12-23T12:00:05.294Z,56.84
2022-12-23T12:02:39.266Z,56.75
2022-12-23T12:05:26.481Z,56.40
2022-12-23T12:08:01.107Z,56.95
2022-12-23T12:10:32.803Z,56.99
2022-12-23T12:13:04.281Z,57.27
2022-12-23T12:15:42.863Z,57.07
2022-12-23T12:18:15.841Z,58.39
2022-12-23T12:20:47.788Z,58.16
2022-12-23T12:23:19.911Z,58.15
2022-12-23T12:25:51.729Z,58.32
2022-12-23T12:28:23.788Z,58.25
2022-12-23T12:31:02.349Z,58.13
2022-12-23T12:33:36.925Z,58.33
2022-12-23T12:36:13.951Z,58.04
2022-12-23T12:38:47.690Z,57.68
2022-12-23T12:41:19.910Z,57.68
2022-12-23T12:43:52.830Z,57.69
2022-12-23T12:46:31.828Z,57.68
2022-12-23T12:49:06.677Z,57.60
2022-12-23T12:51:41.678Z,57.61
2022-12-23T12:54:17.847Z,57.30
2022-12-23T12:56:50.481Z,56.89
2022-12-23T12:59:20.735Z,56.88
2022-12-23T13:02:01.820Z,57.35
2022-12-23T13:04:58.014Z,57.17
2022-12-23T13:07:39.892Z,57.06
2022-12-23T13:10:17.190Z,57.20
2022-12-23T13:12:55.940Z,56.89
2022-12-23T13:15:29.712Z,56.94
2022-12-23T13:18:20.756Z,57.93
2022-12-23T13:20:57.204Z,57.63
2022-12-23T13:23:43.435Z,56.92
2022-12-23T13:26:20.634Z,56.60
2022-12-23T13:29:01.189Z,56.93
2022-12-23T13:31:38.899Z,56.89
2022-12-23T13:34:24.565Z,57.23
2022-12-23T13:37:01.615Z,57.48
2022-12-23T13:39:46.813Z,57.08
2022-12-23T13:42:23.070Z,57.92
2022-12-23T13:44:51.711Z,58.19
2022-12-23T13:47:36.531Z,57.66
2022-12-23T13:50:12.901Z,57.81
2022-12-23T13:53:00.234Z,57.36
2022-12-23T13:55:48.889Z,56.64
2022-12-23T13:58:19.509Z,56.82
2022-12-23T14:00:47.897Z,56.68
2022-12-23T14:03:23.705Z,57.05
2022-12-23T14:05:54.595Z,56.81
2022-12-23T14:08:27.538Z,57.17
2022-12-23T14:10:58.612Z,56.86
2022-12-23T14:13:29.393Z,57.09
2022-12-23T14:16:20.259Z,56.93
2022-12-23T14:19:23.274Z,58.11
2022-12-23T14:22:03.820Z,57.78
2022-12-23T14:25:12.532Z,58.11
2022-12-23T14:27:52.321Z,58.62
2022-12-23T14:30:26.835Z,58.36
2022-12-23T14:32:59.211Z,58.47
2022-12-23T14:35:48.927Z,58.36
2022-12-23T14:38:34.524Z,58.48
2022-12-23T14:41:23.725Z,58.36
2022-12-23T14:43:59.524Z,58.68
2022-12-23T14:46:55.790Z,59.03
2022-12-23T14:49:42.868Z,59.07
2022-12-23T14:52:45.103Z,59.20
2022-12-23T14:55:43.957Z,59.57
2022-12-23T14:58:47.734Z,59.22
2022-12-23T15:01:19.316Z,59.35
2022-12-23T15:03:59.089Z,59.29
2022-12-23T15:06:36.404Z,59.89
2022-12-23T15:09:06.227Z,60.05
2022-12-23T15:11:37.729Z,60.09
2022-12-23T15:14:12.231Z,60.19
2022-12-23T15:16:45.230Z,60.58
2022-12-23T15:19:23.986Z,61.03
2022-12-23T15:22:03.266Z,61.26
2022-12-23T15:24:35.888Z,61.26
2022-12-23T15:27:26.713Z,61.60
2022-12-23T15:29:55.927Z,61.79
2022-12-23T15:32:25.294Z,61.75
2022-12-23T15:34:56.681Z,62.24
2022-12-23T15:37:29.437Z,62.19
2022-12-23T15:40:06.172Z,62.97
2022-12-23T15:42:48.655Z,63.35
2022-12-23T15:45:32.248Z,63.84
2022-12-23T15:48:00.451Z,63.58
2022-12-23T15:50:29.790Z,64.34
2022-12-23T15:53:05.431Z,65.69
2022-12-23T15:55:35.939Z,65.25
2022-12-23T15:58:05.907Z,65.87
2022-12-23T16:00:42.521Z,66.45
2022-12-23T16:03:26.629Z,65.49
2022-12-23T16:05:55.072Z,65.52
2022-12-23T16:08:29.870Z,65.70
2022-12-23T16:11:06.467Z,66.34
2022-12-23T16:13:37.422Z,65.57
2022-12-23T16:16:35.449Z,65.86
2022-12-23T16:19:03.556Z,66.84
2022-12-23T16:21:34.758Z,66.32
2022-12-23T16:24:07.690Z,66.20
2022-12-23T16:26:41.542Z,66.48
2022-12-23T16:29:12.617Z,66.01
2022-12-23T16:31:48.300Z,65.91
2022-12-23T16:34:20.441Z,65.95
2022-12-23T16:36:51.152Z,65.82
2022-12-23T16:39:22.808Z,66.07
2022-12-23T16:41:51.590Z,66.24
2022-12-23T16:44:20.959Z,65.82
2022-12-23T16:46:52.095Z,66.02
2022-12-23T16:49:22.454Z,66.17
2022-12-23T16:51:54.052Z,66.27
2022-12-23T16:54:22.287Z,65.78
2022-12-23T16:56:50.483Z,66.24
2022-12-23T16:59:21.110Z,66.55
2022-12-23T17:01:50.457Z,66.30
2022-12-23T17:04:18.579Z,66.14
2022-12-23T17:06:47.574Z,66.36
2022-12-23T17:09:15.743Z,65.90
2022-12-23T17:11:46.372Z,66.63
2022-12-23T17:14:17.300Z,66.53
2022-12-23T17:16:47.880Z,67.16
2022-12-23T17:19:27.229Z,66.87
2022-12-23T17:22:01.583Z,67.17
2022-12-23T17:24:29.933Z,67.89
2022-12-23T17:26:58.128Z,67.79
2022-12-23T17:29:26.435Z,68.18
2022-12-23T17:31:56.149Z,69.16
2022-12-23T17:34:25.741Z,68.92
2022-12-23T17:36:54.440Z,68.91
2022-12-23T17:39:23.259Z,68.86
2022-12-23T17:41:51.364Z,69.49
2022-12-23T17:44:19.541Z,68.99
2022-12-23T17:46:48.176Z,69.46
2022-12-23T17:49:17.692Z,68.75
2022-12-23T17:51:45.909Z,69.30
2022-12-23T17:54:23.092Z,70.09
2022-12-23T17:56:51.580Z,69.83
2022-12-23T17:59:19.554Z,69.93
2022-12-23T18:01:47.969Z,69.87
2022-12-23T18:04:17.408Z,69.76
2022-12-23T18:06:45.469Z,70.13
2022-12-23T18:09:13.475Z,69.45
2022-12-23T18:11:44.485Z,70.24
2022-12-23T18:14:18.624Z,69.98
2022-12-23T18:16:46.767Z,70.42
2022-12-23T18:19:20.233Z,70.32
2022-12-23T18:21:48.954Z,70.90
2022-12-23T18:24:17.420Z,71.33
2022-12-23T18:26:45.642Z,71.79
2022-12-23T18:29:13.617Z,71.87
2022-12-23T18:31:50.923Z,71.54
2022-12-23T18:34:21.652Z,71.57
2022-12-23T18:36:51.691Z,71.35
2022-12-23T18:39:20.163Z,71.46
2022-12-23T18:41:48.199Z,71.48
2022-12-23T18:44:19.594Z,71.63
2022-12-23T18:46:48.275Z,71.79
2022-12-23T18:49:16.359Z,72.21
2022-12-23T18:51:45.838Z,71.92
2022-12-23T18:54:15.414Z,72.85
2022-12-23T18:56:43.870Z,73.08
2022-12-23T18:59:21.335Z,73.67
2022-12-23T19:01:56.254Z,73.01
2022-12-23T19:04:24.584Z,74.11
2022-12-23T19:06:55.415Z,73.03
2022-12-23T19:09:25.038Z,72.64
2022-12-23T19:11:54.835Z,72.32
2022-12-23T19:14:23.279Z,72.00
2022-12-23T19:16:52.587Z,71.83
2022-12-23T19:19:20.924Z,71.94
2022-12-23T19:21:48.990Z,72.57
2022-12-23T19:24:18.752Z,72.40
2022-12-23T19:26:48.311Z,72.32
2022-12-23T19:29:16.716Z,72.36
2022-12-23T19:31:44.658Z,71.47
2022-12-23T19:34:15.379Z,71.84
2022-12-23T19:36:44.329Z,72.08
2022-12-23T19:39:17.278Z,72.14
2022-12-23T19:41:47.001Z,71.91
2022-12-23T19:44:15.099Z,71.24
2022-12-23T19:46:43.358Z,71.62
2022-12-23T19:49:19.518Z,71.40
2022-12-23T19:51:48.824Z,70.75
2022-12-23T19:54:18.222Z,70.94
2022-12-23T19:56:51.122Z,70.56
2022-12-23T19:59:20.175Z,70.71
2022-12-23T20:01:48.503Z,70.87
2022-12-23T20:04:16.680Z,70.47
2022-12-23T20:06:45.074Z,71.42
2022-12-23T20:09:14.408Z,70.80
2022-12-23T20:11:44.504Z,70.91
2022-12-23T20:14:16.420Z,70.44
2022-12-23T20:16:45.194Z,71.12
2022-12-23T20:19:13.340Z,71.38
2022-12-23T20:21:41.561Z,70.90
2022-12-23T20:24:10.691Z,70.93
2022-12-23T20:26:39.466Z,71.24
2022-12-23T20:29:07.752Z,71.47
2022-12-23T20:31:38.979Z,71.96
2022-12-23T20:34:08.773Z,71.27
2022-12-23T20:36:37.820Z,72.06
2022-12-23T20:39:06.844Z,71.64
2022-12-23T20:41:35.202Z,71.33
2022-12-23T20:44:33.053Z,71.69
2022-12-23T20:46:53.432Z,71.91
2022-12-23T20:49:21.919Z,72.24
2022-12-23T20:51:50.069Z,71.94
2022-12-23T20:54:18.254Z,71.86
2022-12-23T20:56:46.281Z,71.85
2022-12-23T20:59:14.376Z,71.58
2022-12-23T21:01:42.772Z,71.37
2022-12-23T21:04:15.697Z,71.66
2022-12-23T21:06:47.099Z,72.57
2022-12-23T21:09:16.489Z,71.60
2022-12-23T21:11:46.692Z,71.87
2022-12-23T21:14:15.753Z,72.54
2022-12-23T21:16:43.938Z,71.63
2022-12-23T21:19:18.236Z,71.48
2022-12-23T21:21:46.870Z,72.27
2022-12-23T21:24:15.045Z,72.32
2022-12-23T21:26:43.774Z,72.02
2022-12-23T21:29:12.203Z,72.60
2022-12-23T21:31:43.617Z,73.98
2022-12-23T21:34:14.364Z,73.72
2022-12-23T21:36:44.001Z,72.36
2022-12-23T21:39:14.919Z,73.20
2022-12-23T21:41:43.117Z,72.84
2022-12-23T21:44:13.582Z,72.68
2022-12-23T21:46:41.974Z,72.43
2022-12-23T21:49:10.656Z,72.39
2022-12-23T21:51:41.101Z,72.13
2022-12-23T21:54:12.887Z,72.18
2022-12-23T21:56:41.857Z,71.03
2022-12-23T21:59:12.965Z,71.21
2022-12-23T22:01:41.700Z,71.66
2022-12-23T22:04:09.971Z,71.30
2022-12-23T22:06:40.185Z,72.11
2022-12-23T22:09:11.613Z,71.51
2022-12-23T22:11:39.938Z,71.73
2022-12-23T22:14:10.015Z,71.92
2022-12-23T22:16:38.222Z,71.14
2022-12-23T22:19:08.693Z,70.81
2022-12-23T22:21:39.749Z,70.84
2022-12-23T22:24:08.557Z,69.67
2022-12-23T22:26:38.100Z,69.93
2022-12-23T22:29:07.313Z,69.94
2022-12-23T22:31:39.978Z,71.08
2022-12-23T22:34:09.341Z,70.73
2022-12-23T22:36:37.717Z,69.56
2022-12-23T22:39:07.834Z,70.35
2022-12-23T22:41:37.503Z,70.11
2022-12-23T22:44:05.877Z,70.62
2022-12-23T22:46:34.352Z,70.91
2022-12-23T22:49:02.624Z,70.57
2022-12-23T22:51:32.150Z,69.98
2022-12-23T22:54:02.605Z,70.30
2022-12-23T22:56:30.691Z,70.50
2022-12-23T22:59:00.346Z,70.19
2022-12-23T23:01:30.602Z,70.29
2022-12-23T23:04:01.252Z,69.79
2022-12-23T23:06:31.092Z,69.69
2022-12-23T23:08:59.836Z,68.66
2022-12-23T23:11:29.262Z,69.18
2022-12-23T23:13:58.041Z,69.24
2022-12-23T23:16:27.947Z,69.33
2022-12-23T23:18:56.212Z,68.98
2022-12-23T23:21:24.414Z,68.46
2022-12-23T23:23:52.594Z,69.60
2022-12-23T23:26:21.568Z,69.06
2022-12-23T23:28:49.955Z,68.75
2022-12-23T23:31:41.249Z,69.84
2022-12-23T23:34:07.287Z,69.66
2022-12-23T23:36:35.461Z,69.94
2022-12-23T23:39:03.458Z,69.37
2022-12-23T23:41:31.486Z,69.80
2022-12-23T23:44:02.003Z,69.30
2022-12-23T23:46:31.779Z,70.74
2022-12-23T23:49:00.094Z,71.29
2022-12-23T23:51:29.463Z,70.53
2022-12-23T23:53:57.536Z,70.07
2022-12-23T23:56:27.296Z,70.49
2022-12-23T23:58:56.908Z,70.09
